sensor_id;sensor_type;location;lat;lon;timestamp;P1;durP1;ratioP1;P2;durP2;ratioP2
53644;SDS011;39547;45.554;12.068;2022-12-11T00:01:20;17.20;;;8.48;;
53644;SDS011;39547;45.554;12.068;2022-12-11T00:07:21;17.17;;;8.57;;
53644;SDS011;39547;45.554;12.068;2022-12-11T00:13:23;17.13;;;8.75;;
53644;SDS011;39547;45.554;12.068;2022-12-11T00:19:24;17.17;;;8.93;;
53644;SDS011;39547;45.554;12.068;2022-12-11T00:25:26;18.63;;;9.90;;
53644;SDS011;39547;45.554;12.068;2022-12-11T00:31:28;17.48;;;9.00;;
53644;SDS011;39547;45.554;12.068;2022-12-11T00:37:30;19.35;;;9.40;;
53644;SDS011;39547;45.554;12.068;2022-12-11T00:43:31;17.77;;;8.80;;
53644;SDS011;39547;45.554;12.068;2022-12-11T00:49:32;18.45;;;9.65;;
53644;SDS011;39547;45.554;12.068;2022-12-11T00:55:38;17.45;;;8.65;;
53644;SDS011;39547;45.554;12.068;2022-12-11T01:01:40;19.70;;;10.70;;
53644;SDS011;39547;45.554;12.068;2022-12-11T01:07:42;19.23;;;10.07;;
53644;SDS011;39547;45.554;12.068;2022-12-11T01:13:43;20.48;;;10.90;;
53644;SDS011;39547;45.554;12.068;2022-12-11T01:19:46;20.52;;;11.25;;
53644;SDS011;39547;45.554;12.068;2022-12-11T01:25:47;22.83;;;12.02;;
53644;SDS011;39547;45.554;12.068;2022-12-11T01:31:48;22.15;;;11.02;;
53644;SDS011;39547;45.554;12.068;2022-12-11T01:37:50;27.02;;;15.00;;
53644;SDS011;39547;45.554;12.068;2022-12-11T01:43:55;22.20;;;12.15;;
53644;SDS011;39547;45.554;12.068;2022-12-11T01:49:58;25.80;;;14.13;;
53644;SDS011;39547;45.554;12.068;2022-12-11T01:55:59;25.50;;;13.52;;
53644;SDS011;39547;45.554;12.068;2022-12-11T02:02:03;25.65;;;13.80;;
53644;SDS011;39547;45.554;12.068;2022-12-11T02:08:08;22.95;;;12.38;;
53644;SDS011;39547;45.554;12.068;2022-12-11T02:20:38;21.92;;;11.88;;
53644;SDS011;39547;45.554;12.068;2022-12-11T02:26:53;23.45;;;12.23;;
53644;SDS011;39547;45.554;12.068;2022-12-11T02:32:57;23.23;;;11.93;;
53644;SDS011;39547;45.554;12.068;2022-12-11T02:38:59;21.40;;;11.50;;
53644;SDS011;39547;45.554;12.068;2022-12-11T02:45:03;23.73;;;11.60;;
53644;SDS011;39547;45.554;12.068;2022-12-11T02:51:07;20.52;;;10.55;;
53644;SDS011;39547;45.554;12.068;2022-12-11T02:57:12;21.17;;;10.38;;
53644;SDS011;39547;45.554;12.068;2022-12-11T03:03:16;20.55;;;10.45;;
53644;SDS011;39547;45.554;12.068;2022-12-11T03:09:18;21.15;;;10.73;;
53644;SDS011;39547;45.554;12.068;2022-12-11T03:15:21;22.55;;;10.98;;
53644;SDS011;39547;45.554;12.068;2022-12-11T03:21:48;24.67;;;12.55;;
53644;SDS011;39547;45.554;12.068;2022-12-11T03:28:03;23.30;;;11.68;;
53644;SDS011;39547;45.554;12.068;2022-12-11T03:34:19;21.40;;;11.23;;
53644;SDS011;39547;45.554;12.068;2022-12-11T03:40:27;23.95;;;12.63;;
53644;SDS011;39547;45.554;12.068;2022-12-11T03:46:34;21.40;;;10.60;;
53644;SDS011;39547;45.554;12.068;2022-12-11T03:52:39;22.38;;;10.88;;
53644;SDS011;39547;45.554;12.068;2022-12-11T03:58:42;24.67;;;12.20;;
53644;SDS011;39547;45.554;12.068;2022-12-11T04:04:44;21.70;;;11.02;;
53644;SDS011;39547;45.554;12.068;2022-12-11T04:10:45;20.48;;;10.15;;
53644;SDS011;39547;45.554;12.068;2022-12-11T04:16:47;20.00;;;9.63;;
53644;SDS011;39547;45.554;12.068;2022-12-11T04:22:49;18.05;;;8.15;;
53644;SDS011;39547;45.554;12.068;2022-12-11T04:29:09;18.40;;;8.45;;
53644;SDS011;39547;45.554;12.068;2022-12-11T04:35:11;15.93;;;7.10;;
53644;SDS011;39547;45.554;12.068;2022-12-11T04:41:14;16.23;;;6.93;;
53644;SDS011;39547;45.554;12.068;2022-12-11T04:47:17;15.95;;;6.97;;
53644;SDS011;39547;45.554;12.068;2022-12-11T04:53:18;15.95;;;6.70;;
53644;SDS011;39547;45.554;12.068;2022-12-11T04:59:20;15.25;;;6.75;;
53644;SDS011;39547;45.554;12.068;2022-12-11T05:05:21;15.73;;;6.13;;
53644;SDS011;39547;45.554;12.068;2022-12-11T05:11:23;14.18;;;5.32;;
53644;SDS011;39547;45.554;12.068;2022-12-11T05:17:24;12.38;;;4.18;;
53644;SDS011;39547;45.554;12.068;2022-12-11T05:23:26;11.20;;;3.53;;
53644;SDS011;39547;45.554;12.068;2022-12-11T05:29:27;10.90;;;3.15;;
53644;SDS011;39547;45.554;12.068;2022-12-11T05:35:29;11.40;;;3.30;;
53644;SDS011;39547;45.554;12.068;2022-12-11T05:41:31;11.50;;;3.40;;
53644;SDS011;39547;45.554;12.068;2022-12-11T05:47:32;10.68;;;3.20;;
53644;SDS011;39547;45.554;12.068;2022-12-11T05:53:34;11.63;;;3.50;;
53644;SDS011;39547;45.554;12.068;2022-12-11T05:59:36;11.00;;;3.20;;
53644;SDS011;39547;45.554;12.068;2022-12-11T06:05:39;10.95;;;3.05;;
53644;SDS011;39547;45.554;12.068;2022-12-11T06:11:42;10.52;;;2.85;;
53644;SDS011;39547;45.554;12.068;2022-12-11T06:17:43;10.88;;;3.05;;
53644;SDS011;39547;45.554;12.068;2022-12-11T06:23:45;10.50;;;3.00;;
53644;SDS011;39547;45.554;12.068;2022-12-11T06:29:48;11.40;;;3.38;;
53644;SDS011;39547;45.554;12.068;2022-12-11T06:35:49;11.55;;;3.47;;
53644;SDS011;39547;45.554;12.068;2022-12-11T06:41:51;11.43;;;3.53;;
53644;SDS011;39547;45.554;12.068;2022-12-11T06:47:54;11.13;;;3.45;;
53644;SDS011;39547;45.554;12.068;2022-12-11T06:53:55;10.68;;;3.20;;
53644;SDS011;39547;45.554;12.068;2022-12-11T06:59:57;11.15;;;3.30;;
53644;SDS011;39547;45.554;12.068;2022-12-11T07:06:01;11.27;;;3.33;;
53644;SDS011;39547;45.554;12.068;2022-12-11T07:12:04;10.70;;;3.00;;
53644;SDS011;39547;45.554;12.068;2022-12-11T07:18:06;12.00;;;3.40;;
53644;SDS011;39547;45.554;12.068;2022-12-11T07:24:08;10.80;;;3.20;;
53644;SDS011;39547;45.554;12.068;2022-12-11T07:30:09;10.27;;;2.78;;
53644;SDS011;39547;45.554;12.068;2022-12-11T07:36:12;10.00;;;2.70;;
53644;SDS011;39547;45.554;12.068;2022-12-11T07:42:15;10.35;;;2.80;;
53644;SDS011;39547;45.554;12.068;2022-12-11T07:48:17;9.57;;;2.55;;
53644;SDS011;39547;45.554;12.068;2022-12-11T07:54:18;9.23;;;2.53;;
53644;SDS011;39547;45.554;12.068;2022-12-11T08:00:20;10.30;;;2.92;;
53644;SDS011;39547;45.554;12.068;2022-12-11T08:06:28;10.98;;;3.05;;
53644;SDS011;39547;45.554;12.068;2022-12-11T08:12:31;11.15;;;3.20;;
53644;SDS011;39547;45.554;12.068;2022-12-11T08:18:33;11.30;;;3.30;;
53644;SDS011;39547;45.554;12.068;2022-12-11T08:24:36;11.25;;;3.58;;
53644;SDS011;39547;45.554;12.068;2022-12-11T08:30:38;11.43;;;3.65;;
53644;SDS011;39547;45.554;12.068;2022-12-11T08:36:40;11.52;;;3.60;;
53644;SDS011;39547;45.554;12.068;2022-12-11T08:42:41;11.10;;;3.38;;
53644;SDS011;39547;45.554;12.068;2022-12-11T08:48:43;11.80;;;3.92;;
53644;SDS011;39547;45.554;12.068;2022-12-11T08:54:45;10.82;;;3.28;;
53644;SDS011;39547;45.554;12.068;2022-12-11T09:00:46;10.80;;;3.42;;
53644;SDS011;39547;45.554;12.068;2022-12-11T09:06:48;11.27;;;3.60;;
53644;SDS011;39547;45.554;12.068;2022-12-11T09:12:49;12.00;;;3.80;;
53644;SDS011;39547;45.554;12.068;2022-12-11T09:18:52;12.02;;;3.85;;
53644;SDS011;39547;45.554;12.068;2022-12-11T09:24:55;11.05;;;3.60;;
53644;SDS011;39547;45.554;12.068;2022-12-11T09:30:57;12.02;;;4.00;;
53644;SDS011;39547;45.554;12.068;2022-12-11T09:36:58;11.35;;;3.80;;
53644;SDS011;39547;45.554;12.068;2022-12-11T09:43:02;11.85;;;3.65;;
53644;SDS011;39547;45.554;12.068;2022-12-11T09:49:22;11.90;;;4.28;;
53644;SDS011;39547;45.554;12.068;2022-12-11T10:02:20;11.88;;;3.55;;
53644;SDS011;39547;45.554;12.068;2022-12-11T10:08:35;11.35;;;3.13;;
53644;SDS011;39547;45.554;12.068;2022-12-11T10:14:58;11.23;;;3.22;;
53644;SDS011;39547;45.554;12.068;2022-12-11T10:21:22;10.93;;;3.33;;
53644;SDS011;39547;45.554;12.068;2022-12-11T10:27:29;11.43;;;3.70;;
53644;SDS011;39547;45.554;12.068;2022-12-11T10:33:40;12.95;;;4.10;;
53644;SDS011;39547;45.554;12.068;2022-12-11T10:39:46;11.63;;;3.78;;
53644;SDS011;39547;45.554;12.068;2022-12-11T10:45:49;12.70;;;4.60;;
53644;SDS011;39547;45.554;12.068;2022-12-11T10:51:52;11.90;;;3.60;;
53644;SDS011;39547;45.554;12.068;2022-12-11T10:57:59;11.80;;;3.50;;
53644;SDS011;39547;45.554;12.068;2022-12-11T11:04:13;11.85;;;3.72;;
53644;SDS011;39547;45.554;12.068;2022-12-11T11:16:20;12.50;;;4.13;;
53644;SDS011;39547;45.554;12.068;2022-12-11T11:22:22;11.35;;;3.80;;
53644;SDS011;39547;45.554;12.068;2022-12-11T11:28:28;11.18;;;3.75;;
53644;SDS011;39547;45.554;12.068;2022-12-11T11:34:34;11.45;;;3.80;;
53644;SDS011;39547;45.554;12.068;2022-12-11T11:40:43;11.65;;;3.70;;
53644;SDS011;39547;45.554;12.068;2022-12-11T11:46:53;11.32;;;3.58;;
53644;SDS011;39547;45.554;12.068;2022-12-11T11:53:13;11.88;;;3.70;;
53644;SDS011;39547;45.554;12.068;2022-12-11T12:05:37;12.63;;;4.03;;
53644;SDS011;39547;45.554;12.068;2022-12-11T12:12:04;11.80;;;3.80;;
53644;SDS011;39547;45.554;12.068;2022-12-11T12:24:34;12.00;;;3.55;;
53644;SDS011;39547;45.554;12.068;2022-12-11T12:43:56;12.27;;;4.28;;
53644;SDS011;39547;45.554;12.068;2022-12-11T12:50:09;12.98;;;3.97;;
53644;SDS011;39547;45.554;12.068;2022-12-11T12:56:20;11.32;;;3.70;;
53644;SDS011;39547;45.554;12.068;2022-12-11T13:02:23;12.85;;;4.07;;
53644;SDS011;39547;45.554;12.068;2022-12-11T13:08:26;12.07;;;3.92;;
53644;SDS011;39547;45.554;12.068;2022-12-11T13:14:30;12.23;;;4.03;;
53644;SDS011;39547;45.554;12.068;2022-12-11T13:20:33;11.73;;;3.75;;
53644;SDS011;39547;45.554;12.068;2022-12-11T13:26:48;12.33;;;4.17;;
53644;SDS011;39547;45.554;12.068;2022-12-11T13:33:01;12.25;;;4.15;;
53644;SDS011;39547;45.554;12.068;2022-12-11T13:39:14;12.35;;;4.10;;
53644;SDS011;39547;45.554;12.068;2022-12-11T13:51:51;12.18;;;4.10;;
53644;SDS011;39547;45.554;12.068;2022-12-11T13:57:53;12.95;;;4.32;;
53644;SDS011;39547;45.554;12.068;2022-12-11T14:03:56;12.75;;;4.32;;
53644;SDS011;39547;45.554;12.068;2022-12-11T14:10:19;13.32;;;4.50;;
53644;SDS011;39547;45.554;12.068;2022-12-11T14:16:25;12.48;;;4.07;;
53644;SDS011;39547;45.554;12.068;2022-12-11T14:22:28;13.55;;;4.80;;
53644;SDS011;39547;45.554;12.068;2022-12-11T14:28:35;11.88;;;3.65;;
53644;SDS011;39547;45.554;12.068;2022-12-11T14:34:40;12.80;;;4.32;;
53644;SDS011;39547;45.554;12.068;2022-12-11T14:40:46;13.45;;;4.68;;
53644;SDS011;39547;45.554;12.068;2022-12-11T14:46:55;13.15;;;4.60;;
53644;SDS011;39547;45.554;12.068;2022-12-11T14:53:06;12.80;;;4.53;;
53644;SDS011;39547;45.554;12.068;2022-12-11T14:59:16;13.07;;;4.60;;
53644;SDS011;39547;45.554;12.068;2022-12-11T15:05:22;13.32;;;4.22;;
53644;SDS011;39547;45.554;12.068;2022-12-11T15:11:23;12.43;;;4.22;;
53644;SDS011;39547;45.554;12.068;2022-12-11T15:17:31;12.82;;;4.10;;
53644;SDS011;39547;45.554;12.068;2022-12-11T15:23:54;13.90;;;4.50;;
53644;SDS011;39547;45.554;12.068;2022-12-11T15:29:57;13.98;;;4.82;;
53644;SDS011;39547;45.554;12.068;2022-12-11T15:36:00;12.75;;;4.43;;
53644;SDS011;39547;45.554;12.068;2022-12-11T15:42:06;13.57;;;4.68;;
53644;SDS011;39547;45.554;12.068;2022-12-11T15:48:08;13.27;;;4.60;;
53644;SDS011;39547;45.554;12.068;2022-12-11T15:54:11;14.20;;;5.47;;
53644;SDS011;39547;45.554;12.068;2022-12-11T16:00:13;14.85;;;5.78;;
53644;SDS011;39547;45.554;12.068;2022-12-11T16:06:15;14.77;;;6.28;;
53644;SDS011;39547;45.554;12.068;2022-12-11T16:12:17;13.98;;;5.40;;
53644;SDS011;39547;45.554;12.068;2022-12-11T16:18:20;16.70;;;5.88;;
53644;SDS011;39547;45.554;12.068;2022-12-11T16:24:23;13.57;;;5.50;;
53644;SDS011;39547;45.554;12.068;2022-12-11T16:30:25;14.48;;;5.78;;
53644;SDS011;39547;45.554;12.068;2022-12-11T16:36:27;14.43;;;5.68;;
53644;SDS011;39547;45.554;12.068;2022-12-11T16:42:29;16.50;;;6.20;;
53644;SDS011;39547;45.554;12.068;2022-12-11T16:48:30;14.95;;;6.13;;
53644;SDS011;39547;45.554;12.068;2022-12-11T16:54:32;14.90;;;5.93;;
53644;SDS011;39547;45.554;12.068;2022-12-11T17:00:33;17.67;;;7.28;;
53644;SDS011;39547;45.554;12.068;2022-12-11T17:06:35;16.88;;;6.68;;
53644;SDS011;39547;45.554;12.068;2022-12-11T17:12:36;16.92;;;7.00;;
53644;SDS011;39547;45.554;12.068;2022-12-11T17:18:38;18.67;;;7.40;;
53644;SDS011;39547;45.554;12.068;2022-12-11T17:24:40;17.45;;;7.65;;
53644;SDS011;39547;45.554;12.068;2022-12-11T17:30:42;17.45;;;7.18;;
53644;SDS011;39547;45.554;12.068;2022-12-11T17:36:45;15.48;;;6.47;;
53644;SDS011;39547;45.554;12.068;2022-12-11T17:42:46;17.35;;;6.75;;
53644;SDS011;39547;45.554;12.068;2022-12-11T17:48:48;17.40;;;7.68;;
53644;SDS011;39547;45.554;12.068;2022-12-11T17:54:51;19.35;;;8.15;;
53644;SDS011;39547;45.554;12.068;2022-12-11T18:00:53;18.80;;;8.35;;
53644;SDS011;39547;45.554;12.068;2022-12-11T18:06:56;17.20;;;7.55;;
53644;SDS011;39547;45.554;12.068;2022-12-11T18:12:58;17.17;;;7.90;;
53644;SDS011;39547;45.554;12.068;2022-12-11T18:19:00;18.90;;;8.75;;
53644;SDS011;39547;45.554;12.068;2022-12-11T18:25:03;17.90;;;8.15;;
53644;SDS011;39547;45.554;12.068;2022-12-11T18:31:05;22.17;;;9.52;;
53644;SDS011;39547;45.554;12.068;2022-12-11T18:37:07;19.35;;;9.07;;
53644;SDS011;39547;45.554;12.068;2022-12-11T18:43:08;21.08;;;10.20;;
53644;SDS011;39547;45.554;12.068;2022-12-11T18:49:10;26.80;;;13.80;;
53644;SDS011;39547;45.554;12.068;2022-12-11T18:55:12;29.65;;;17.17;;
53644;SDS011;39547;45.554;12.068;2022-12-11T19:01:18;27.92;;;13.77;;
53644;SDS011;39547;45.554;12.068;2022-12-11T19:07:25;30.08;;;16.05;;
53644;SDS011;39547;45.554;12.068;2022-12-11T19:13:26;23.98;;;12.60;;
53644;SDS011;39547;45.554;12.068;2022-12-11T19:19:28;23.52;;;12.18;;
53644;SDS011;39547;45.554;12.068;2022-12-11T19:25:29;24.42;;;13.10;;
53644;SDS011;39547;45.554;12.068;2022-12-11T19:31:31;23.40;;;12.05;;
53644;SDS011;39547;45.554;12.068;2022-12-11T19:37:34;22.50;;;12.00;;
53644;SDS011;39547;45.554;12.068;2022-12-11T19:43:38;21.83;;;11.03;;
53644;SDS011;39547;45.554;12.068;2022-12-11T19:49:39;23.23;;;11.68;;
53644;SDS011;39547;45.554;12.068;2022-12-11T19:55:47;24.15;;;12.52;;
53644;SDS011;39547;45.554;12.068;2022-12-11T20:01:49;22.50;;;11.25;;
53644;SDS011;39547;45.554;12.068;2022-12-11T20:07:51;20.90;;;10.52;;
53644;SDS011;39547;45.554;12.068;2022-12-11T20:13:52;21.73;;;11.00;;
53644;SDS011;39547;45.554;12.068;2022-12-11T20:19:55;25.17;;;12.18;;
53644;SDS011;39547;45.554;12.068;2022-12-11T20:25:56;28.73;;;14.30;;
53644;SDS011;39547;45.554;12.068;2022-12-11T20:31:58;23.88;;;11.43;;
53644;SDS011;39547;45.554;12.068;2022-12-11T20:38:00;23.63;;;11.57;;
53644;SDS011;39547;45.554;12.068;2022-12-11T20:44:01;24.63;;;12.48;;
53644;SDS011;39547;45.554;12.068;2022-12-11T20:50:03;21.63;;;11.30;;
53644;SDS011;39547;45.554;12.068;2022-12-11T20:56:13;25.02;;;12.07;;
53644;SDS011;39547;45.554;12.068;2022-12-11T21:02:19;24.45;;;12.15;;
53644;SDS011;39547;45.554;12.068;2022-12-11T21:08:20;22.02;;;11.07;;
53644;SDS011;39547;45.554;12.068;2022-12-11T21:14:22;20.60;;;10.90;;
53644;SDS011;39547;45.554;12.068;2022-12-11T21:20:23;25.95;;;12.80;;
53644;SDS011;39547;45.554;12.068;2022-12-11T21:26:25;27.20;;;13.07;;
53644;SDS011;39547;45.554;12.068;2022-12-11T21:32:27;27.33;;;14.30;;
53644;SDS011;39547;45.554;12.068;2022-12-11T21:38:29;28.13;;;13.43;;
53644;SDS011;39547;45.554;12.068;2022-12-11T21:44:31;24.60;;;12.75;;
53644;SDS011;39547;45.554;12.068;2022-12-11T21:50:32;25.80;;;12.65;;
53644;SDS011;39547;45.554;12.068;2022-12-11T21:56:34;26.48;;;12.63;;
53644;SDS011;39547;45.554;12.068;2022-12-11T22:02:37;26.10;;;12.93;;
53644;SDS011;39547;45.554;12.068;2022-12-11T22:08:39;24.38;;;12.63;;
53644;SDS011;39547;45.554;12.068;2022-12-11T22:14:41;29.02;;;14.43;;
53644;SDS011;39547;45.554;12.068;2022-12-11T22:20:42;31.17;;;15.85;;
53644;SDS011;39547;45.554;12.068;2022-12-11T22:26:44;28.00;;;14.52;;
53644;SDS011;39547;45.554;12.068;2022-12-11T22:32:47;27.48;;;14.55;;
53644;SDS011;39547;45.554;12.068;2022-12-11T22:38:48;31.55;;;16.90;;
53644;SDS011;39547;45.554;12.068;2022-12-11T22:44:50;29.77;;;15.55;;
53644;SDS011;39547;45.554;12.068;2022-12-11T22:50:51;34.42;;;17.35;;
53644;SDS011;39547;45.554;12.068;2022-12-11T22:56:55;27.77;;;14.63;;
53644;SDS011;39547;45.554;12.068;2022-12-11T23:02:57;31.20;;;16.38;;
53644;SDS011;39547;45.554;12.068;2022-12-11T23:08:58;28.25;;;15.00;;
53644;SDS011;39547;45.554;12.068;2022-12-11T23:15:00;27.88;;;13.80;;
53644;SDS011;39547;45.554;12.068;2022-12-11T23:21:02;28.10;;;14.43;;
53644;SDS011;39547;45.554;12.068;2022-12-11T23:27:05;28.15;;;14.45;;
53644;SDS011;39547;45.554;12.068;2022-12-11T23:33:06;27.05;;;14.00;;
53644;SDS011;39547;45.554;12.068;2022-12-11T23:39:08;31.10;;;15.77;;
53644;SDS011;39547;45.554;12.068;2022-12-11T23:45:10;30.00;;;15.95;;
53644;SDS011;39547;45.554;12.068;2022-12-11T23:51:12;34.67;;;18.63;;
53644;SDS011;39547;45.554;12.068;2022-12-11T23:57:15;33.55;;;18.15;;
